sensor_id;sensor_type;location;lat;lon;timestamp;P1;durP1;ratioP1;P2;durP2;ratioP2
83443;SDS011;73374;41.170;-96.156;2024-01-07T00:01:31;5.60;;;3.20;;
83443;SDS011;73374;41.170;-96.156;2024-01-07T00:11:38;11.10;;;5.32;;
83443;SDS011;73374;41.170;-96.156;2024-01-07T00:16:41;5.80;;;2.83;;
83443;SDS011;73374;41.170;-96.156;2024-01-07T00:21:44;6.78;;;2.75;;
83443;SDS011;73374;41.170;-96.156;2024-01-07T00:26:49;7.60;;;3.90;;
83443;SDS011;73374;41.170;-96.156;2024-01-07T00:31:52;6.82;;;3.38;;
83443;SDS011;73374;41.170;-96.156;2024-01-07T00:36:55;4.85;;;2.65;;
83443;SDS011;73374;41.170;-96.156;2024-01-07T00:42:00;8.25;;;3.38;;
83443;SDS011;73374;41.170;-96.156;2024-01-07T00:47:03;9.45;;;3.72;;
83443;SDS011;73374;41.170;-96.156;2024-01-07T00:52:06;7.60;;;3.58;;
83443;SDS011;73374;41.170;-96.156;2024-01-07T00:57:11;7.28;;;3.22;;
83443;SDS011;73374;41.170;-96.156;2024-01-07T01:02:14;8.40;;;4.20;;
83443;SDS011;73374;41.170;-96.156;2024-01-07T01:07:17;9.40;;;4.10;;
83443;SDS011;73374;41.170;-96.156;2024-01-07T01:12:22;11.52;;;4.30;;
83443;SDS011;73374;41.170;-96.156;2024-01-07T01:17:25;11.65;;;4.43;;
83443;SDS011;73374;41.170;-96.156;2024-01-07T01:22:28;9.35;;;3.90;;
83443;SDS011;73374;41.170;-96.156;2024-01-07T01:27:33;10.75;;;4.13;;
83443;SDS011;73374;41.170;-96.156;2024-01-07T01:32:36;8.45;;;3.95;;
83443;SDS011;73374;41.170;-96.156;2024-01-07T01:37:39;5.88;;;2.72;;
83443;SDS011;73374;41.170;-96.156;2024-01-07T01:42:44;6.72;;;3.17;;
83443;SDS011;73374;41.170;-96.156;2024-01-07T01:47:47;4.78;;;3.00;;
83443;SDS011;73374;41.170;-96.156;2024-01-07T01:52:51;6.43;;;3.13;;
83443;SDS011;73374;41.170;-96.156;2024-01-07T01:57:57;6.53;;;3.47;;
83443;SDS011;73374;41.170;-96.156;2024-01-07T02:03:03;4.40;;;1.92;;
83443;SDS011;73374;41.170;-96.156;2024-01-07T02:08:06;5.68;;;2.35;;
83443;SDS011;73374;41.170;-96.156;2024-01-07T02:13:11;4.90;;;2.50;;
83443;SDS011;73374;41.170;-96.156;2024-01-07T02:18:14;4.50;;;2.40;;
83443;SDS011;73374;41.170;-96.156;2024-01-07T02:23:17;6.00;;;2.80;;
83443;SDS011;73374;41.170;-96.156;2024-01-07T02:28:22;6.25;;;3.50;;
83443;SDS011;73374;41.170;-96.156;2024-01-07T02:33:25;4.25;;;2.28;;
83443;SDS011;73374;41.170;-96.156;2024-01-07T02:38:28;3.15;;;1.83;;
83443;SDS011;73374;41.170;-96.156;2024-01-07T02:43:33;5.13;;;3.10;;
83443;SDS011;73374;41.170;-96.156;2024-01-07T02:48:36;3.10;;;1.70;;
83443;SDS011;73374;41.170;-96.156;2024-01-07T02:53:39;4.63;;;2.45;;
83443;SDS011;73374;41.170;-96.156;2024-01-07T02:58:44;4.50;;;2.20;;
83443;SDS011;73374;41.170;-96.156;2024-01-07T03:03:47;4.03;;;1.95;;
83443;SDS011;73374;41.170;-96.156;2024-01-07T03:08:50;5.20;;;2.60;;
83443;SDS011;73374;41.170;-96.156;2024-01-07T03:13:54;4.55;;;2.22;;
83443;SDS011;73374;41.170;-96.156;2024-01-07T03:18:57;4.90;;;2.42;;
83443;SDS011;73374;41.170;-96.156;2024-01-07T03:29:05;4.25;;;1.80;;
83443;SDS011;73374;41.170;-96.156;2024-01-07T03:34:08;3.85;;;1.88;;
83443;SDS011;73374;41.170;-96.156;2024-01-07T03:39:11;3.65;;;1.48;;
83443;SDS011;73374;41.170;-96.156;2024-01-07T03:44:16;3.92;;;1.58;;
83443;SDS011;73374;41.170;-96.156;2024-01-07T03:49:19;3.65;;;2.03;;
83443;SDS011;73374;41.170;-96.156;2024-01-07T03:54:22;4.13;;;1.80;;
83443;SDS011;73374;41.170;-96.156;2024-01-07T03:59:27;3.63;;;1.80;;
83443;SDS011;73374;41.170;-96.156;2024-01-07T04:04:30;4.03;;;1.60;;
83443;SDS011;73374;41.170;-96.156;2024-01-07T04:09:33;3.15;;;1.42;;
83443;SDS011;73374;41.170;-96.156;2024-01-07T04:14:37;3.10;;;1.70;;
83443;SDS011;73374;41.170;-96.156;2024-01-07T04:19:40;4.35;;;2.10;;
83443;SDS011;73374;41.170;-96.156;2024-01-07T04:24:43;3.13;;;1.45;;
83443;SDS011;73374;41.170;-96.156;2024-01-07T04:29:48;2.63;;;1.42;;
83443;SDS011;73374;41.170;-96.156;2024-01-07T04:34:51;2.80;;;1.38;;
83443;SDS011;73374;41.170;-96.156;2024-01-07T04:44:58;1.50;;;0.82;;
83443;SDS011;73374;41.170;-96.156;2024-01-07T04:50:01;2.30;;;0.90;;
83443;SDS011;73374;41.170;-96.156;2024-01-07T04:55:06;3.65;;;1.85;;
83443;SDS011;73374;41.170;-96.156;2024-01-07T05:00:12;5.20;;;2.95;;
83443;SDS011;73374;41.170;-96.156;2024-01-07T05:05:15;5.90;;;3.35;;
83443;SDS011;73374;41.170;-96.156;2024-01-07T05:10:18;5.05;;;3.00;;
83443;SDS011;73374;41.170;-96.156;2024-01-07T05:15:23;3.95;;;2.58;;
83443;SDS011;73374;41.170;-96.156;2024-01-07T05:20:26;3.67;;;1.77;;
83443;SDS011;73374;41.170;-96.156;2024-01-07T05:25:29;1.60;;;0.88;;
83443;SDS011;73374;41.170;-96.156;2024-01-07T05:30:34;1.95;;;1.02;;
83443;SDS011;73374;41.170;-96.156;2024-01-07T05:35:37;2.47;;;1.20;;
83443;SDS011;73374;41.170;-96.156;2024-01-07T05:40:39;1.60;;;1.00;;
83443;SDS011;73374;41.170;-96.156;2024-01-07T05:45:44;1.35;;;0.93;;
83443;SDS011;73374;41.170;-96.156;2024-01-07T05:50:47;3.28;;;1.60;;
83443;SDS011;73374;41.170;-96.156;2024-01-07T05:55:50;3.67;;;1.40;;
83443;SDS011;73374;41.170;-96.156;2024-01-07T06:00:55;1.52;;;0.77;;
83443;SDS011;73374;41.170;-96.156;2024-01-07T06:05:58;5.28;;;1.48;;
83443;SDS011;73374;41.170;-96.156;2024-01-07T06:11:01;3.95;;;1.70;;
83443;SDS011;73374;41.170;-96.156;2024-01-07T06:16:06;3.35;;;1.50;;
83443;SDS011;73374;41.170;-96.156;2024-01-07T06:21:09;3.08;;;1.45;;
83443;SDS011;73374;41.170;-96.156;2024-01-07T06:26:12;3.35;;;1.88;;
83443;SDS011;73374;41.170;-96.156;2024-01-07T06:31:17;3.33;;;1.60;;
83443;SDS011;73374;41.170;-96.156;2024-01-07T06:36:20;2.50;;;1.30;;
83443;SDS011;73374;41.170;-96.156;2024-01-07T06:41:23;2.80;;;1.60;;
83443;SDS011;73374;41.170;-96.156;2024-01-07T06:46:27;3.05;;;1.40;;
83443;SDS011;73374;41.170;-96.156;2024-01-07T06:51:30;2.72;;;1.38;;
83443;SDS011;73374;41.170;-96.156;2024-01-07T06:56:34;3.55;;;1.45;;
83443;SDS011;73374;41.170;-96.156;2024-01-07T07:01:38;2.67;;;1.17;;
83443;SDS011;73374;41.170;-96.156;2024-01-07T07:06:41;2.80;;;1.63;;
83443;SDS011;73374;41.170;-96.156;2024-01-07T07:11:44;3.03;;;1.77;;
83443;SDS011;73374;41.170;-96.156;2024-01-07T07:16:49;2.97;;;1.52;;
83443;SDS011;73374;41.170;-96.156;2024-01-07T07:21:52;2.72;;;1.30;;
83443;SDS011;73374;41.170;-96.156;2024-01-07T07:26:55;2.50;;;1.60;;
83443;SDS011;73374;41.170;-96.156;2024-01-07T07:31:59;3.63;;;1.50;;
83443;SDS011;73374;41.170;-96.156;2024-01-07T07:37:03;3.88;;;1.38;;
83443;SDS011;73374;41.170;-96.156;2024-01-07T07:42:06;2.85;;;1.30;;
83443;SDS011;73374;41.170;-96.156;2024-01-07T07:47:11;4.03;;;1.75;;
83443;SDS011;73374;41.170;-96.156;2024-01-07T07:52:14;2.95;;;1.63;;
83443;SDS011;73374;41.170;-96.156;2024-01-07T07:57:17;3.33;;;1.42;;
83443;SDS011;73374;41.170;-96.156;2024-01-07T08:02:22;3.67;;;1.63;;
83443;SDS011;73374;41.170;-96.156;2024-01-07T08:07:25;2.92;;;1.30;;
83443;SDS011;73374;41.170;-96.156;2024-01-07T08:12:29;5.90;;;2.55;;
83443;SDS011;73374;41.170;-96.156;2024-01-07T08:17:33;4.03;;;1.65;;
83443;SDS011;73374;41.170;-96.156;2024-01-07T08:22:36;5.45;;;2.42;;
83443;SDS011;73374;41.170;-96.156;2024-01-07T08:27:40;1.25;;;0.65;;
83443;SDS011;73374;41.170;-96.156;2024-01-07T08:32:45;2.97;;;1.40;;
83443;SDS011;73374;41.170;-96.156;2024-01-07T08:37:48;2.08;;;1.25;;
83443;SDS011;73374;41.170;-96.156;2024-01-07T08:42:51;2.10;;;1.33;;
83443;SDS011;73374;41.170;-96.156;2024-01-07T08:47:56;2.33;;;1.35;;
83443;SDS011;73374;41.170;-96.156;2024-01-07T08:52:59;2.63;;;1.15;;
83443;SDS011;73374;41.170;-96.156;2024-01-07T08:58:06;1.80;;;0.93;;
83443;SDS011;73374;41.170;-96.156;2024-01-07T09:03:10;2.63;;;1.42;;
83443;SDS011;73374;41.170;-96.156;2024-01-07T09:08:14;2.78;;;1.33;;
83443;SDS011;73374;41.170;-96.156;2024-01-07T09:13:17;2.95;;;1.52;;
83443;SDS011;73374;41.170;-96.156;2024-01-07T09:18:21;2.90;;;1.52;;
83443;SDS011;73374;41.170;-96.156;2024-01-07T09:23:24;4.03;;;2.00;;
83443;SDS011;73374;41.170;-96.156;2024-01-07T09:28:27;3.45;;;2.00;;
83443;SDS011;73374;41.170;-96.156;2024-01-07T09:33:32;4.55;;;1.83;;
83443;SDS011;73374;41.170;-96.156;2024-01-07T09:38:35;6.38;;;3.75;;
83443;SDS011;73374;41.170;-96.156;2024-01-07T09:43:38;4.53;;;2.50;;
83443;SDS011;73374;41.170;-96.156;2024-01-07T09:48:43;6.43;;;3.05;;
83443;SDS011;73374;41.170;-96.156;2024-01-07T09:53:46;6.53;;;3.35;;
83443;SDS011;73374;41.170;-96.156;2024-01-07T09:58:50;5.63;;;2.13;;
83443;SDS011;73374;41.170;-96.156;2024-01-07T10:03:55;6.03;;;3.20;;
83443;SDS011;73374;41.170;-96.156;2024-01-07T10:08:59;5.63;;;3.33;;
83443;SDS011;73374;41.170;-96.156;2024-01-07T10:14:02;7.70;;;3.58;;
83443;SDS011;73374;41.170;-96.156;2024-01-07T10:19:06;7.13;;;3.42;;
83443;SDS011;73374;41.170;-96.156;2024-01-07T10:24:10;5.47;;;2.67;;
83443;SDS011;73374;41.170;-96.156;2024-01-07T10:29:14;6.85;;;3.30;;
83443;SDS011;73374;41.170;-96.156;2024-01-07T10:34:18;5.13;;;2.80;;
83443;SDS011;73374;41.170;-96.156;2024-01-07T10:39:25;4.50;;;2.35;;
83443;SDS011;73374;41.170;-96.156;2024-01-07T10:44:29;3.97;;;2.58;;
83443;SDS011;73374;41.170;-96.156;2024-01-07T10:49:35;5.65;;;3.15;;
83443;SDS011;73374;41.170;-96.156;2024-01-07T10:54:38;6.05;;;3.45;;
83443;SDS011;73374;41.170;-96.156;2024-01-07T10:59:44;5.95;;;2.90;;
83443;SDS011;73374;41.170;-96.156;2024-01-07T11:04:51;3.58;;;2.05;;
83443;SDS011;73374;41.170;-96.156;2024-01-07T11:10:06;6.65;;;2.80;;
83443;SDS011;73374;41.170;-96.156;2024-01-07T11:15:18;5.38;;;2.63;;
83443;SDS011;73374;41.170;-96.156;2024-01-07T11:20:57;5.35;;;2.53;;
83443;SDS011;73374;41.170;-96.156;2024-01-07T11:26:01;7.22;;;3.50;;
83443;SDS011;73374;41.170;-96.156;2024-01-07T11:31:04;8.88;;;3.90;;
83443;SDS011;73374;41.170;-96.156;2024-01-07T11:36:10;6.15;;;2.72;;
83443;SDS011;73374;41.170;-96.156;2024-01-07T11:41:14;6.38;;;3.47;;
83443;SDS011;73374;41.170;-96.156;2024-01-07T11:46:17;6.80;;;3.13;;
83443;SDS011;73374;41.170;-96.156;2024-01-07T11:51:22;7.47;;;3.55;;
83443;SDS011;73374;41.170;-96.156;2024-01-07T11:56:25;7.43;;;3.33;;
83443;SDS011;73374;41.170;-96.156;2024-01-07T12:01:30;6.47;;;2.92;;
83443;SDS011;73374;41.170;-96.156;2024-01-07T12:06:35;6.57;;;3.35;;
83443;SDS011;73374;41.170;-96.156;2024-01-07T12:11:38;6.07;;;3.40;;
83443;SDS011;73374;41.170;-96.156;2024-01-07T12:16:45;7.78;;;3.55;;
83443;SDS011;73374;41.170;-96.156;2024-01-07T12:21:50;7.22;;;3.85;;
83443;SDS011;73374;41.170;-96.156;2024-01-07T12:32:06;8.15;;;3.78;;
83443;SDS011;73374;41.170;-96.156;2024-01-07T12:37:14;7.63;;;3.15;;
83443;SDS011;73374;41.170;-96.156;2024-01-07T12:42:17;8.32;;;4.18;;
83443;SDS011;73374;41.170;-96.156;2024-01-07T12:47:20;7.97;;;3.67;;
83443;SDS011;73374;41.170;-96.156;2024-01-07T12:52:25;8.00;;;3.58;;
83443;SDS011;73374;41.170;-96.156;2024-01-07T12:57:28;8.38;;;3.75;;
83443;SDS011;73374;41.170;-96.156;2024-01-07T13:02:31;6.80;;;3.75;;
83443;SDS011;73374;41.170;-96.156;2024-01-07T13:07:35;10.50;;;4.20;;
83443;SDS011;73374;41.170;-96.156;2024-01-07T13:12:38;9.45;;;3.17;;
83443;SDS011;73374;41.170;-96.156;2024-01-07T13:17:51;8.20;;;4.30;;
83443;SDS011;73374;41.170;-96.156;2024-01-07T13:22:55;7.03;;;3.42;;
83443;SDS011;73374;41.170;-96.156;2024-01-07T13:27:58;8.02;;;4.10;;
83443;SDS011;73374;41.170;-96.156;2024-01-07T13:33:01;9.48;;;4.38;;
83443;SDS011;73374;41.170;-96.156;2024-01-07T13:38:09;6.82;;;3.75;;
83443;SDS011;73374;41.170;-96.156;2024-01-07T13:43:12;9.68;;;4.15;;
83443;SDS011;73374;41.170;-96.156;2024-01-07T13:48:15;9.13;;;4.65;;
83443;SDS011;73374;41.170;-96.156;2024-01-07T13:53:20;10.52;;;5.60;;
83443;SDS011;73374;41.170;-96.156;2024-01-07T13:58:23;7.13;;;3.60;;
83443;SDS011;73374;41.170;-96.156;2024-01-07T14:03:26;10.13;;;5.20;;
83443;SDS011;73374;41.170;-96.156;2024-01-07T14:08:31;9.18;;;4.22;;
83443;SDS011;73374;41.170;-96.156;2024-01-07T14:13:34;11.13;;;4.68;;
83443;SDS011;73374;41.170;-96.156;2024-01-07T14:18:37;9.23;;;5.10;;
83443;SDS011;73374;41.170;-96.156;2024-01-07T14:23:41;6.93;;;3.63;;
83443;SDS011;73374;41.170;-96.156;2024-01-07T14:28:45;11.27;;;5.20;;
83443;SDS011;73374;41.170;-96.156;2024-01-07T14:33:53;10.07;;;4.68;;
83443;SDS011;73374;41.170;-96.156;2024-01-07T14:38:58;11.65;;;5.43;;
83443;SDS011;73374;41.170;-96.156;2024-01-07T14:44:00;10.75;;;5.25;;
83443;SDS011;73374;41.170;-96.156;2024-01-07T14:49:09;10.90;;;5.45;;
83443;SDS011;73374;41.170;-96.156;2024-01-07T14:54:14;10.65;;;5.18;;
83443;SDS011;73374;41.170;-96.156;2024-01-07T14:59:17;11.52;;;5.22;;
83443;SDS011;73374;41.170;-96.156;2024-01-07T15:04:20;11.65;;;5.05;;
83443;SDS011;73374;41.170;-96.156;2024-01-07T15:09:25;11.80;;;5.43;;
83443;SDS011;73374;41.170;-96.156;2024-01-07T15:14:28;9.68;;;5.03;;
83443;SDS011;73374;41.170;-96.156;2024-01-07T15:19:31;10.95;;;4.70;;
83443;SDS011;73374;41.170;-96.156;2024-01-07T15:24:36;10.02;;;4.97;;
83443;SDS011;73374;41.170;-96.156;2024-01-07T15:29:39;11.48;;;5.80;;
83443;SDS011;73374;41.170;-96.156;2024-01-07T15:34:42;10.73;;;5.10;;
83443;SDS011;73374;41.170;-96.156;2024-01-07T15:39:46;10.43;;;4.70;;
83443;SDS011;73374;41.170;-96.156;2024-01-07T15:44:50;10.93;;;5.25;;
83443;SDS011;73374;41.170;-96.156;2024-01-07T15:49:53;11.15;;;5.57;;
83443;SDS011;73374;41.170;-96.156;2024-01-07T15:54:57;11.05;;;5.40;;
83443;SDS011;73374;41.170;-96.156;2024-01-07T16:00:01;11.50;;;5.50;;
83443;SDS011;73374;41.170;-96.156;2024-01-07T16:05:04;9.48;;;6.13;;
83443;SDS011;73374;41.170;-96.156;2024-01-07T16:10:09;9.40;;;5.95;;
83443;SDS011;73374;41.170;-96.156;2024-01-07T16:15:12;9.30;;;5.53;;
83443;SDS011;73374;41.170;-96.156;2024-01-07T16:20:16;9.18;;;5.00;;
83443;SDS011;73374;41.170;-96.156;2024-01-07T16:30:23;7.93;;;4.45;;
83443;SDS011;73374;41.170;-96.156;2024-01-07T16:35:26;8.70;;;5.65;;
83443;SDS011;73374;41.170;-96.156;2024-01-07T16:40:30;7.32;;;4.80;;
83443;SDS011;73374;41.170;-96.156;2024-01-07T16:45:33;8.77;;;5.00;;
83443;SDS011;73374;41.170;-96.156;2024-01-07T16:50:36;7.93;;;5.75;;
83443;SDS011;73374;41.170;-96.156;2024-01-07T16:55:41;7.72;;;6.00;;
83443;SDS011;73374;41.170;-96.156;2024-01-07T17:00:44;7.15;;;4.25;;
83443;SDS011;73374;41.170;-96.156;2024-01-07T17:05:47;4.95;;;4.22;;
83443;SDS011;73374;41.170;-96.156;2024-01-07T17:10:52;7.95;;;4.53;;
83443;SDS011;73374;41.170;-96.156;2024-01-07T17:15:55;9.05;;;5.40;;
83443;SDS011;73374;41.170;-96.156;2024-01-07T17:20:58;6.35;;;4.22;;
83443;SDS011;73374;41.170;-96.156;2024-01-07T17:26:03;8.43;;;5.85;;
83443;SDS011;73374;41.170;-96.156;2024-01-07T17:31:06;9.43;;;5.30;;
83443;SDS011;73374;41.170;-96.156;2024-01-07T17:36:09;8.00;;;4.70;;
83443;SDS011;73374;41.170;-96.156;2024-01-07T17:41:14;7.20;;;5.03;;
83443;SDS011;73374;41.170;-96.156;2024-01-07T17:46:17;6.97;;;5.20;;
83443;SDS011;73374;41.170;-96.156;2024-01-07T17:51:20;9.00;;;5.13;;
83443;SDS011;73374;41.170;-96.156;2024-01-07T17:56:24;6.05;;;4.43;;
83443;SDS011;73374;41.170;-96.156;2024-01-07T18:01:28;6.95;;;4.90;;
83443;SDS011;73374;41.170;-96.156;2024-01-07T18:06:31;8.05;;;4.97;;
83443;SDS011;73374;41.170;-96.156;2024-01-07T18:11:35;9.30;;;5.80;;
83443;SDS011;73374;41.170;-96.156;2024-01-07T18:16:38;11.60;;;7.60;;
83443;SDS011;73374;41.170;-96.156;2024-01-07T18:21:41;10.13;;;6.90;;
83443;SDS011;73374;41.170;-96.156;2024-01-07T18:26:50;10.52;;;7.05;;
83443;SDS011;73374;41.170;-96.156;2024-01-07T18:31:53;8.25;;;6.70;;
83443;SDS011;73374;41.170;-96.156;2024-01-07T18:36:56;8.98;;;6.32;;
83443;SDS011;73374;41.170;-96.156;2024-01-07T18:42:01;9.32;;;4.53;;
83443;SDS011;73374;41.170;-96.156;2024-01-07T18:47:04;7.53;;;5.65;;
83443;SDS011;73374;41.170;-96.156;2024-01-07T18:52:07;7.28;;;5.07;;
83443;SDS011;73374;41.170;-96.156;2024-01-07T18:57:12;6.93;;;4.28;;
83443;SDS011;73374;41.170;-96.156;2024-01-07T19:02:15;5.78;;;4.20;;
83443;SDS011;73374;41.170;-96.156;2024-01-07T19:07:18;4.72;;;3.38;;
83443;SDS011;73374;41.170;-96.156;2024-01-07T19:12:22;5.50;;;3.63;;
83443;SDS011;73374;41.170;-96.156;2024-01-07T19:17:26;5.07;;;3.53;;
83443;SDS011;73374;41.170;-96.156;2024-01-07T19:22:29;5.90;;;4.00;;
83443;SDS011;73374;41.170;-96.156;2024-01-07T19:27:33;5.95;;;4.57;;
83443;SDS011;73374;41.170;-96.156;2024-01-07T19:32:36;5.65;;;3.90;;
83443;SDS011;73374;41.170;-96.156;2024-01-07T19:37:39;6.63;;;4.20;;
83443;SDS011;73374;41.170;-96.156;2024-01-07T19:42:44;5.85;;;3.50;;
83443;SDS011;73374;41.170;-96.156;2024-01-07T19:47:47;4.53;;;2.75;;
83443;SDS011;73374;41.170;-96.156;2024-01-07T19:52:50;4.90;;;2.95;;
83443;SDS011;73374;41.170;-96.156;2024-01-07T19:57:55;4.82;;;3.17;;
83443;SDS011;73374;41.170;-96.156;2024-01-07T20:02:58;6.75;;;3.50;;
83443;SDS011;73374;41.170;-96.156;2024-01-07T20:08:01;6.13;;;3.33;;
83443;SDS011;73374;41.170;-96.156;2024-01-07T20:13:06;5.80;;;4.22;;
83443;SDS011;73374;41.170;-96.156;2024-01-07T20:18:09;5.30;;;3.55;;
83443;SDS011;73374;41.170;-96.156;2024-01-07T20:23:12;6.88;;;3.55;;
83443;SDS011;73374;41.170;-96.156;2024-01-07T20:28:17;4.50;;;2.65;;
83443;SDS011;73374;41.170;-96.156;2024-01-07T20:33:20;4.78;;;3.08;;
83443;SDS011;73374;41.170;-96.156;2024-01-07T20:38:23;5.78;;;4.22;;
83443;SDS011;73374;41.170;-96.156;2024-01-07T20:43:28;5.28;;;3.33;;
83443;SDS011;73374;41.170;-96.156;2024-01-07T20:48:31;4.90;;;3.40;;
83443;SDS011;73374;41.170;-96.156;2024-01-07T20:53:34;6.40;;;3.92;;
83443;SDS011;73374;41.170;-96.156;2024-01-07T20:58:38;5.95;;;3.08;;
83443;SDS011;73374;41.170;-96.156;2024-01-07T21:03:41;2.05;;;1.42;;
83443;SDS011;73374;41.170;-96.156;2024-01-07T21:08:45;6.15;;;3.50;;
83443;SDS011;73374;41.170;-96.156;2024-01-07T21:13:50;6.30;;;3.92;;
83443;SDS011;73374;41.170;-96.156;2024-01-07T21:18:53;5.32;;;2.90;;
83443;SDS011;73374;41.170;-96.156;2024-01-07T21:23:56;7.00;;;4.10;;
83443;SDS011;73374;41.170;-96.156;2024-01-07T21:29:01;8.38;;;3.90;;
83443;SDS011;73374;41.170;-96.156;2024-01-07T21:34:04;5.55;;;3.03;;
83443;SDS011;73374;41.170;-96.156;2024-01-07T21:39:07;5.05;;;2.25;;
83443;SDS011;73374;41.170;-96.156;2024-01-07T21:44:12;4.50;;;2.40;;
83443;SDS011;73374;41.170;-96.156;2024-01-07T21:49:15;3.92;;;1.58;;
83443;SDS011;73374;41.170;-96.156;2024-01-07T21:54:18;5.05;;;2.78;;
83443;SDS011;73374;41.170;-96.156;2024-01-07T21:59:23;9.40;;;2.90;;
83443;SDS011;73374;41.170;-96.156;2024-01-07T22:04:26;4.95;;;2.20;;
83443;SDS011;73374;41.170;-96.156;2024-01-07T22:09:29;5.50;;;2.42;;
83443;SDS011;73374;41.170;-96.156;2024-01-07T22:14:33;5.65;;;3.17;;
83443;SDS011;73374;41.170;-96.156;2024-01-07T22:19:36;6.95;;;3.35;;
83443;SDS011;73374;41.170;-96.156;2024-01-07T22:24:39;7.13;;;3.53;;
83443;SDS011;73374;41.170;-96.156;2024-01-07T22:29:44;6.72;;;3.17;;
83443;SDS011;73374;41.170;-96.156;2024-01-07T22:34:47;9.70;;;4.80;;
83443;SDS011;73374;41.170;-96.156;2024-01-07T22:39:50;3.88;;;2.10;;
83443;SDS011;73374;41.170;-96.156;2024-01-07T22:44:54;5.38;;;2.50;;
83443;SDS011;73374;41.170;-96.156;2024-01-07T22:49:57;8.88;;;3.95;;
83443;SDS011;73374;41.170;-96.156;2024-01-07T22:55:00;15.68;;;5.57;;
83443;SDS011;73374;41.170;-96.156;2024-01-07T23:05:08;7.57;;;3.42;;
83443;SDS011;73374;41.170;-96.156;2024-01-07T23:10:12;5.22;;;2.63;;
83443;SDS011;73374;41.170;-96.156;2024-01-07T23:15:17;8.93;;;4.75;;
83443;SDS011;73374;41.170;-96.156;2024-01-07T23:20:20;9.88;;;4.13;;
83443;SDS011;73374;41.170;-96.156;2024-01-07T23:30:27;4.78;;;2.15;;
83443;SDS011;73374;41.170;-96.156;2024-01-07T23:35:30;9.18;;;3.72;;
83443;SDS011;73374;41.170;-96.156;2024-01-07T23:40:37;9.45;;;2.97;;
83443;SDS011;73374;41.170;-96.156;2024-01-07T23:50:44;7.88;;;2.83;;
83443;SDS011;73374;41.170;-96.156;2024-01-07T23:55:47;7.25;;;3.90;;
